Time;durP1;ratioP1;P1;durP2;ratioP2;P2;SDS_P1;SDS_P2;PMS_P1;PMS_P2;Temp;Humidity;BMP_temperature;BMP_pressure;BME280_temperature;BME280_humidity;BME280_pressure;Samples;Min_cycle;Max_cycle;Signal;HPM_P1;HPM_P2
2021/07/26 00:00:46;;;;;;;4.93;3.08;;;23.70;99.90;;;;;;5114191;28;20043;-77
2021/07/26 00:03:12;;;;;;;6.97;3.40;;;23.70;99.90;;;;;;5113736;28;20034;-77
2021/07/26 00:05:37;;;;;;;4.65;3.45;;;23.70;99.90;;;;;;5114032;28;20024;-77
2021/07/26 00:08:03;;;;;;;4.55;3.20;;;23.70;99.90;;;;;;5113627;28;20024;-77
2021/07/26 00:10:29;;;;;;;3.58;2.90;;;23.70;99.90;;;;;;5095651;28;20052;-77
2021/07/26 00:12:54;;;;;;;5.97;3.90;;;23.60;99.90;;;;;;5113416;28;20020;-76
2021/07/26 00:15:20;;;;;;;4.72;3.70;;;23.60;99.90;;;;;;5095335;28;20466;-77
2021/07/26 00:17:46;;;;;;;4.05;3.10;;;23.60;99.90;;;;;;5113531;28;20031;-77
2021/07/26 00:20:12;;;;;;;5.03;3.40;;;23.60;99.90;;;;;;5113533;28;20024;-77
2021/07/26 00:22:38;;;;;;;6.60;3.28;;;23.60;99.90;;;;;;5113273;28;20098;-77
2021/07/26 00:25:08;;;;;;;6.45;3.05;;;23.60;99.90;;;;;;5113274;28;20045;-78
2021/07/26 00:27:34;;;;;;;4.88;3.17;;;23.60;99.90;;;;;;5113274;28;20555;-77
2021/07/26 00:30:01;;;;;;;6.82;3.10;;;23.60;99.90;;;;;;5113272;28;20032;-77
2021/07/26 00:32:29;;;;;;;6.50;3.45;;;23.60;99.90;;;;;;5113614;28;20020;-77
2021/07/26 00:34:56;;;;;;;4.80;3.53;;;23.60;99.90;;;;;;5112770;28;20119;-76
2021/07/26 00:37:26;;;;;;;7.50;3.05;;;23.60;99.90;;;;;;5113300;28;20024;-77
2021/07/26 00:39:53;;;;;;;8.45;4.07;;;23.60;99.90;;;;;;5112731;28;20027;-77
2021/07/26 00:42:20;;;;;;;6.60;3.80;;;23.60;99.90;;;;;;5095209;28;20019;-77
2021/07/26 00:44:46;;;;;;;5.13;3.60;;;23.70;99.90;;;;;;5113212;28;20161;-78
2021/07/26 00:47:12;;;;;;;4.45;3.63;;;23.60;99.90;;;;;;5112654;28;20095;-77
2021/07/26 00:49:38;;;;;;;5.95;3.55;;;23.60;99.90;;;;;;5112984;28;20533;-76
2021/07/26 00:52:04;;;;;;;8.25;3.53;;;23.60;99.90;;;;;;5112587;28;20073;-78
2021/07/26 00:54:38;;;;;;;5.60;3.33;;;23.60;99.90;;;;;;5113021;28;20122;-78
2021/07/26 00:57:06;;;;;;;4.80;2.70;;;23.60;99.90;;;;;;5112563;28;20100;-78
2021/07/26 00:59:32;;;;;;;6.80;3.33;;;23.60;99.90;;;;;;5112702;28;20023;-77
2021/07/26 01:01:58;;;;;;;8.63;3.50;;;23.50;99.90;;;;;;5112337;28;20502;-77
2021/07/26 01:04:24;;;;;;;5.57;3.42;;;23.50;99.90;;;;;;5094409;28;20016;-78
2021/07/26 01:06:50;;;;;;;4.65;3.08;;;23.60;99.90;;;;;;5112442;28;20539;-78
2021/07/26 01:09:16;;;;;;;6.65;3.17;;;23.60;99.90;;;;;;5113039;28;20102;-78
2021/07/26 01:11:43;;;;;;;7.32;3.05;;;23.50;99.90;;;;;;5112669;28;20106;-77
2021/07/26 01:14:09;;;;;;;9.57;3.13;;;23.60;99.90;;;;;;5112332;28;20476;-77
2021/07/26 01:16:35;;;;;;;5.03;2.72;;;23.50;99.90;;;;;;5111936;28;20024;-77
2021/07/26 01:19:01;;;;;;;6.35;2.85;;;23.50;99.90;;;;;;5112270;28;20046;-76
2021/07/26 01:21:28;;;;;;;7.47;2.97;;;23.50;99.90;;;;;;5112432;28;20031;-76
2021/07/26 01:23:54;;;;;;;6.47;2.80;;;23.50;99.90;;;;;;5112084;28;20058;-77
2021/07/26 01:26:25;;;;;;;9.10;2.75;;;23.50;99.90;;;;;;5112615;28;20063;-76
2021/07/26 01:28:58;;;;;;;7.80;3.20;;;23.50;99.90;;;;;;5112206;28;20072;-76
2021/07/26 01:31:24;;;;;;;7.85;3.25;;;23.50;99.90;;;;;;5112282;28;20023;-76
2021/07/26 01:33:51;;;;;;;5.80;2.80;;;23.50;99.90;;;;;;5111876;28;20020;-76
2021/07/26 01:36:18;;;;;;;8.18;3.35;;;23.50;99.90;;;;;;5112138;28;20028;-76
2021/07/26 01:38:45;;;;;;;6.47;3.10;;;23.50;99.90;;;;;;5112117;28;20023;-76
2021/07/26 01:41:24;;;;;;;6.75;3.30;;;23.40;99.90;;;;;;5111624;28;20113;-76
2021/07/26 01:46:43;;;;;;;4.35;3.10;;;23.50;99.90;;;;;;5111898;28;20035;-77
2021/07/26 01:49:08;;;;;;;5.40;3.13;;;23.50;99.90;;;;;;5111619;28;20502;-77
2021/07/26 01:51:43;;;;;;;5.05;3.15;;;23.40;99.90;;;;;;5111139;28;20028;-78
2021/07/26 01:54:10;;;;;;;5.07;3.03;;;23.40;99.90;;;;;;5111166;28;20071;-76
2021/07/26 01:56:35;;;;;;;8.15;3.72;;;23.40;99.90;;;;;;5112021;28;20027;-76
2021/07/26 01:59:03;;;;;;;10.18;3.50;;;23.40;99.90;;;;;;5111563;28;20479;-77
2021/07/26 02:01:29;;;;;;;4.88;2.58;;;23.40;99.90;;;;;;5111824;28;20534;-77
2021/07/26 02:03:58;;;;;;;7.15;3.05;;;23.40;99.90;;;;;;5111547;28;20102;-76
2021/07/26 02:06:24;;;;;;;5.95;3.33;;;23.40;99.90;;;;;;5111789;28;20024;-76
2021/07/26 02:08:50;;;;;;;7.72;2.97;;;23.40;99.90;;;;;;5111400;28;20026;-76
2021/07/26 02:11:15;;;;;;;10.15;3.47;;;23.40;99.90;;;;;;5111973;28;20398;-76
2021/07/26 02:13:41;;;;;;;5.63;2.90;;;23.40;99.90;;;;;;5111659;28;20513;-76
2021/07/26 02:16:10;;;;;;;12.48;3.67;;;23.40;99.90;;;;;;5111178;28;20035;-77
2021/07/26 02:18:36;;;;;;;6.38;3.42;;;23.40;99.90;;;;;;5111688;28;20016;-77
2021/07/26 02:21:02;;;;;;;9.45;2.97;;;23.30;99.90;;;;;;5111378;28;20020;-77
2021/07/26 02:23:28;;;;;;;7.35;3.35;;;23.40;99.90;;;;;;5111567;28;20024;-77
2021/07/26 02:25:53;;;;;;;7.35;4.15;;;23.30;99.90;;;;;;5111255;28;20028;-77
2021/07/26 02:28:19;;;;;;;5.53;4.13;;;23.40;99.90;;;;;;5111889;28;20027;-76
2021/07/26 02:30:45;;;;;;;9.75;3.55;;;23.30;99.90;;;;;;5111887;28;20085;-76
2021/07/26 02:33:10;;;;;;;7.60;4.43;;;23.30;99.90;;;;;;5111076;28;20074;-76
2021/07/26 02:35:36;;;;;;;7.65;3.70;;;23.30;99.90;;;;;;5111132;28;20555;-76
2021/07/26 02:38:01;;;;;;;9.25;3.53;;;23.30;99.90;;;;;;5110906;28;20024;-76
2021/07/26 02:40:28;;;;;;;10.18;3.42;;;23.30;99.90;;;;;;5111006;28;20509;-75
2021/07/26 02:42:55;;;;;;;5.70;3.55;;;23.30;99.90;;;;;;5111102;28;20106;-76
2021/07/26 02:45:21;;;;;;;9.15;3.33;;;23.30;99.90;;;;;;5111492;28;20099;-76
2021/07/26 02:47:46;;;;;;;6.70;3.33;;;23.30;99.90;;;;;;5111489;28;20127;-76
2021/07/26 02:50:13;;;;;;;7.80;3.88;;;23.30;99.90;;;;;;5110789;28;20038;-77
2021/07/26 02:52:38;;;;;;;10.27;3.63;;;23.30;99.90;;;;;;5110762;28;20430;-77
2021/07/26 02:55:05;;;;;;;7.65;4.35;;;23.30;99.90;;;;;;5111072;28;20027;-77
2021/07/26 02:57:32;;;;;;;9.55;3.67;;;23.30;99.90;;;;;;5111155;28;20020;-76
2021/07/26 02:59:58;;;;;;;10.55;4.15;;;23.30;99.90;;;;;;5110960;28;20471;-76
2021/07/26 03:02:24;;;;;;;9.05;3.83;;;23.30;99.90;;;;;;5093173;28;20024;-77
2021/07/26 03:04:50;;;;;;;15.10;4.15;;;23.20;99.90;;;;;;5096880;28;20024;-77
2021/07/26 03:07:15;;;;;;;6.38;3.17;;;23.30;99.90;;;;;;5115337;28;20031;-76
2021/07/26 03:09:41;;;;;;;8.45;3.58;;;23.20;99.90;;;;;;5115036;28;20027;-78
2021/07/26 03:12:07;;;;;;;12.05;3.45;;;23.20;99.90;;;;;;5114629;28;20095;-76
2021/07/26 03:14:32;;;;;;;9.10;3.88;;;23.20;99.90;;;;;;5114760;28;20138;-77
2021/07/26 03:17:03;;;;;;;10.02;4.22;;;23.20;99.90;;;;;;5113850;28;20016;-76
2021/07/26 03:19:29;;;;;;;8.75;4.15;;;23.20;99.90;;;;;;5114882;28;20023;-77
2021/07/26 03:22:32;;;;;;;7.80;3.22;;;23.30;99.90;;;;;;5114585;28;20019;-77
2021/07/26 03:24:58;;;;;;;10.18;3.58;;;23.20;99.90;;;;;;5112952;28;20027;-77
2021/07/26 03:27:24;;;;;;;7.53;3.50;;;23.20;99.90;;;;;;5114461;28;20046;-77
2021/07/26 03:29:50;;;;;;;7.22;3.55;;;23.20;99.90;;;;;;5114996;28;20020;-77
2021/07/26 03:32:15;;;;;;;7.00;3.28;;;23.20;99.90;;;;;;5115078;28;20035;-76
2021/07/26 03:34:41;;;;;;;6.97;3.67;;;23.20;99.90;;;;;;5114520;28;20039;-78
2021/07/26 03:37:07;;;;;;;7.72;3.50;;;23.20;99.90;;;;;;5114470;28;20027;-77
2021/07/26 03:39:32;;;;;;;11.88;3.55;;;23.20;99.90;;;;;;5114241;28;20055;-77
2021/07/26 03:41:58;;;;;;;9.82;3.55;;;23.20;99.90;;;;;;5114306;28;20073;-77
2021/07/26 03:44:24;;;;;;;11.55;3.17;;;23.20;99.90;;;;;;5113866;28;20024;-77
2021/07/26 03:46:49;;;;;;;10.48;3.35;;;23.20;99.90;;;;;;5114378;28;20028;-78
2021/07/26 03:49:15;;;;;;;12.52;3.78;;;23.20;99.90;;;;;;5113781;28;20027;-77
2021/07/26 03:51:40;;;;;;;8.75;3.75;;;23.20;99.90;;;;;;5114245;28;20043;-78
2021/07/26 03:54:06;;;;;;;8.13;3.10;;;23.20;99.90;;;;;;5114174;28;20031;-78
2021/07/26 03:56:32;;;;;;;7.70;3.40;;;23.20;99.90;;;;;;5113977;28;20031;-77
2021/07/26 03:58:57;;;;;;;7.03;3.03;;;23.20;99.90;;;;;;5113960;28;20028;-77
2021/07/26 04:01:23;;;;;;;5.78;2.70;;;23.20;99.90;;;;;;5113719;28;20472;-78
2021/07/26 04:03:50;;;;;;;7.40;3.08;;;23.20;99.90;;;;;;5114214;28;20031;-79
2021/07/26 04:06:16;;;;;;;6.80;3.17;;;23.20;99.90;;;;;;5113509;28;20466;-80
2021/07/26 04:08:46;;;;;;;8.75;3.60;;;23.20;99.90;;;;;;5095555;28;20024;-78
2021/07/26 04:11:24;;;;;;;6.18;2.72;;;23.20;99.90;;;;;;5095251;28;20031;-79
2021/07/26 04:14:03;;;;;;;6.45;3.85;;;23.10;99.90;;;;;;5095110;28;20080;-79
2021/07/26 04:16:29;;;;;;;10.43;3.58;;;23.20;99.90;;;;;;5094847;28;20491;-80
2021/07/26 04:18:56;;;;;;;8.40;3.67;;;23.20;99.90;;;;;;5113807;28;20114;-79
2021/07/26 04:21:30;;;;;;;8.40;4.18;;;23.10;99.90;;;;;;5113374;28;20034;-77
2021/07/26 04:23:56;;;;;;;5.55;3.85;;;23.10;99.90;;;;;;5113642;28;20027;-79
2021/07/26 04:26:22;;;;;;;10.82;4.03;;;23.10;99.90;;;;;;5094854;28;20015;-76
2021/07/26 04:28:48;;;;;;;8.35;3.50;;;23.10;99.90;;;;;;5113445;28;20043;-80
2021/07/26 04:31:14;;;;;;;9.00;3.60;;;23.10;99.90;;;;;;5112958;28;20019;-79
2021/07/26 04:33:39;;;;;;;5.95;3.38;;;23.10;99.90;;;;;;5113366;28;20024;-78
2021/07/26 04:36:05;;;;;;;6.25;4.13;;;23.10;99.90;;;;;;5113379;28;20590;-78
2021/07/26 04:38:31;;;;;;;6.43;3.58;;;23.10;99.90;;;;;;5112941;28;20479;-77
2021/07/26 04:40:57;;;;;;;5.88;3.10;;;23.10;99.90;;;;;;5094770;28;20059;-76
2021/07/26 04:43:23;;;;;;;7.30;3.72;;;23.10;99.90;;;;;;5094875;28;20111;-75
2021/07/26 04:45:49;;;;;;;5.57;3.30;;;23.00;99.90;;;;;;5113516;28;20099;-76
2021/07/26 04:48:15;;;;;;;6.97;3.42;;;23.10;99.90;;;;;;5112796;28;20450;-77
2021/07/26 04:50:41;;;;;;;9.13;4.15;;;23.10;99.90;;;;;;5112902;28;20059;-77
2021/07/26 04:53:06;;;;;;;8.77;4.53;;;23.10;99.90;;;;;;5112721;28;20103;-75
2021/07/26 04:55:32;;;;;;;6.57;4.50;;;23.10;99.90;;;;;;5112449;28;20139;-76
2021/07/26 04:57:58;;;;;;;9.95;4.85;;;23.00;99.90;;;;;;5112931;28;20023;-76
2021/07/26 05:00:26;;;;;;;8.35;4.95;;;23.00;99.90;;;;;;5112138;28;20061;-76
2021/07/26 05:02:53;;;;;;;7.57;5.07;;;23.10;99.90;;;;;;5113119;28;20047;-77
2021/07/26 05:05:18;;;;;;;6.03;4.78;;;23.10;99.90;;;;;;5112614;28;20024;-76
2021/07/26 05:07:44;;;;;;;6.75;4.60;;;23.00;99.90;;;;;;5112594;28;20034;-78
2021/07/26 05:10:11;;;;;;;10.27;4.95;;;23.00;99.90;;;;;;5112597;28;20035;-77
2021/07/26 05:12:36;;;;;;;9.40;4.80;;;23.00;99.90;;;;;;5112444;28;20450;-77
2021/07/26 05:15:02;;;;;;;10.52;5.07;;;23.00;99.90;;;;;;5111935;28;20146;-78
2021/07/26 05:17:28;;;;;;;6.88;4.50;;;23.00;99.90;;;;;;5112150;28;20016;-75
2021/07/26 05:19:54;;;;;;;8.60;4.45;;;23.00;99.90;;;;;;5112668;28;20028;-75
2021/07/26 05:22:20;;;;;;;7.72;4.57;;;23.00;99.90;;;;;;5112255;28;20024;-77
2021/07/26 05:24:46;;;;;;;9.70;5.43;;;23.00;99.90;;;;;;5112058;28;20024;-78
2021/07/26 05:27:13;;;;;;;10.05;5.45;;;23.00;99.90;;;;;;5112272;28;20095;-78
2021/07/26 05:29:39;;;;;;;6.53;4.40;;;23.00;99.90;;;;;;5111492;28;20035;-77
2021/07/26 05:32:06;;;;;;;7.90;5.35;;;23.00;99.90;;;;;;5112096;28;20034;-77
2021/07/26 05:34:32;;;;;;;8.82;5.43;;;23.00;99.90;;;;;;5111709;28;20055;-78
2021/07/26 05:36:58;;;;;;;8.27;4.75;;;23.00;99.90;;;;;;5110973;28;20051;-78
2021/07/26 05:39:24;;;;;;;9.45;4.97;;;23.00;99.90;;;;;;5112228;28;20070;-78
2021/07/26 05:41:57;;;;;;;8.80;4.32;;;23.00;99.90;;;;;;5094107;28;20055;-76
2021/07/26 05:44:23;;;;;;;9.93;4.93;;;23.00;99.90;;;;;;5111469;28;20043;-78
2021/07/26 05:46:48;;;;;;;7.43;4.95;;;23.00;99.90;;;;;;5111946;28;20024;-75
2021/07/26 05:49:15;;;;;;;7.15;5.13;;;22.90;99.90;;;;;;5111508;28;20019;-74
2021/07/26 05:51:40;;;;;;;8.52;4.90;;;23.00;99.90;;;;;;5111839;28;20084;-78
2021/07/26 05:54:06;;;;;;;9.02;5.50;;;23.00;99.90;;;;;;5111870;28;20031;-79
2021/07/26 05:56:37;;;;;;;6.70;4.60;;;22.90;99.90;;;;;;5111614;28;20052;-79
2021/07/26 05:59:04;;;;;;;11.30;6.07;;;22.90;99.90;;;;;;5111343;28;20114;-75
2021/07/26 06:01:48;;;;;;;7.72;6.10;;;23.00;99.90;;;;;;5109846;28;20032;-77
2021/07/26 06:04:18;;;;;;;9.27;5.28;;;22.90;99.90;;;;;;5092149;28;20020;-75
2021/07/26 06:06:49;;;;;;;8.40;5.88;;;22.90;99.90;;;;;;5110287;28;20028;-75
2021/07/26 06:09:16;;;;;;;9.20;5.80;;;22.90;99.90;;;;;;5110995;28;20030;-76
2021/07/26 06:11:42;;;;;;;7.88;6.03;;;22.90;99.90;;;;;;5111675;28;20452;-75
2021/07/26 06:14:09;;;;;;;9.07;6.13;;;22.90;99.90;;;;;;5110898;28;20114;-76
2021/07/26 06:16:38;;;;;;;10.30;5.10;;;22.90;99.90;;;;;;5110724;28;20047;-76
2021/07/26 06:19:09;;;;;;;11.70;5.00;;;22.90;99.90;;;;;;5110477;28;20107;-76
2021/07/26 06:21:59;;;;;;;9.13;5.90;;;22.90;99.90;;;;;;5090201;28;20093;-76
2021/07/26 06:24:25;;;;;;;13.80;9.23;;;22.90;99.90;;;;;;5110931;28;20071;-76
2021/07/26 06:26:55;;;;;;;16.67;11.18;;;22.80;99.90;;;;;;5110861;28;20412;-75
2021/07/26 06:29:23;;;;;;;18.73;11.38;;;22.80;99.90;;;;;;5110199;28;20034;-74
2021/07/26 06:31:48;;;;;;;20.10;12.88;;;22.70;99.90;;;;;;5111137;28;20024;-74
2021/07/26 06:34:14;;;;;;;19.63;13.55;;;22.60;99.90;;;;;;5110326;28;20028;-74
2021/07/26 06:36:40;;;;;;;25.75;13.30;;;22.60;99.90;;;;;;5111444;28;20032;-74
2021/07/26 06:39:06;;;;;;;20.95;12.38;;;22.60;99.90;;;;;;5114288;28;20035;-74
2021/07/26 06:41:31;;;;;;;22.90;13.95;;;22.60;99.90;;;;;;5114815;28;20066;-74
2021/07/26 06:43:58;;;;;;;21.77;12.75;;;22.60;99.90;;;;;;5114456;28;20028;-74
2021/07/26 06:46:24;;;;;;;22.83;12.65;;;22.60;99.90;;;;;;5114500;28;20073;-75
2021/07/26 06:48:50;;;;;;;25.13;13.75;;;22.60;99.90;;;;;;5114865;28;20114;-74
2021/07/26 06:51:16;;;;;;;24.73;14.00;;;22.50;99.90;;;;;;5095662;28;20414;-74
2021/07/26 06:53:42;;;;;;;25.27;14.63;;;22.60;99.90;;;;;;5111817;28;20035;-74
2021/07/26 06:56:09;;;;;;;24.20;14.20;;;;;;;;;;5113758;28;20019;-74
2021/07/26 06:58:39;;;;;;;24.08;15.25;;;22.60;99.90;;;;;;5113830;28;20062;-75
2021/07/26 07:01:11;;;;;;;32.92;14.98;;;22.40;99.90;;;;;;5114483;28;20023;-73
2021/07/26 07:03:37;;;;;;;31.77;15.73;;;22.40;99.90;;;;;;5114421;28;20083;-73
2021/07/26 07:06:04;;;;;;;33.58;14.27;;;22.50;99.90;;;;;;5112867;28;20456;-74
2021/07/26 07:08:30;;;;;;;24.77;14.93;;;22.50;99.90;;;;;;5113056;28;20050;-74
2021/07/26 07:11:09;;;;;;;27.52;13.75;;;22.50;99.90;;;;;;5113761;28;20028;-78
2021/07/26 07:13:36;;;;;;;30.50;14.23;;;22.50;99.90;;;;;;5111433;28;20078;-76
2021/07/26 07:16:06;;;;;;;29.33;13.13;;;22.50;99.90;;;;;;5112667;28;20110;-76
2021/07/26 07:18:32;;;;;;;20.77;12.10;;;22.50;99.90;;;;;;5112524;28;20098;-76
2021/07/26 07:20:57;;;;;;;20.02;11.77;;;22.40;99.90;;;;;;5112542;28;20114;-75
2021/07/26 07:23:23;;;;;;;23.35;13.18;;;22.40;99.90;;;;;;5113243;28;20489;-77
2021/07/26 07:25:49;;;;;;;22.83;11.85;;;22.30;99.90;;;;;;5112229;28;20023;-72
2021/07/26 07:28:14;;;;;;;15.18;11.00;;;22.30;99.90;;;;;;5113410;28;20045;-73
2021/07/26 07:30:40;;;;;;;19.63;11.85;;;22.30;99.90;;;;;;5114329;28;20398;-75
2021/07/26 07:33:06;;;;;;;18.33;11.30;;;22.30;99.90;;;;;;5114203;28;20141;-75
2021/07/26 07:35:33;;;;;;;17.65;11.38;;;22.30;99.90;;;;;;5095370;28;20038;-74
2021/07/26 07:37:58;;;;;;;17.70;9.70;;;22.30;99.90;;;;;;5114077;28;20479;-75
2021/07/26 07:40:24;;;;;;;17.20;9.00;;;22.40;99.90;;;;;;5114492;28;20032;-75
2021/07/26 07:42:50;;;;;;;16.48;8.45;;;22.40;99.90;;;;;;5114374;28;20051;-75
2021/07/26 07:45:16;;;;;;;15.27;8.20;;;22.50;99.90;;;;;;5114116;28;20034;-75
2021/07/26 07:47:42;;;;;;;16.45;8.60;;;22.60;99.90;;;;;;5113922;28;20510;-74
2021/07/26 07:50:08;;;;;;;18.42;8.25;;;22.60;99.90;;;;;;5112806;28;20024;-75
2021/07/26 07:52:34;;;;;;;11.43;6.97;;;22.60;99.90;;;;;;5113416;28;20084;-75
2021/07/26 07:55:00;;;;;;;16.70;7.38;;;22.60;99.90;;;;;;5114192;28;20055;-74
2021/07/26 07:57:29;;;;;;;12.25;6.78;;;22.70;99.90;;;;;;5114052;28;20518;-75
2021/07/26 07:59:55;;;;;;;14.70;7.50;;;22.70;99.90;;;;;;5114442;28;20019;-75
2021/07/26 08:02:21;;;;;;;11.90;7.35;;;22.70;99.90;;;;;;5113593;28;20103;-75
2021/07/26 08:04:46;;;;;;;13.50;6.43;;;22.80;99.90;;;;;;5113637;28;20099;-75
2021/07/26 08:07:12;;;;;;;15.32;6.82;;;22.80;99.90;;;;;;5113672;28;20020;-76
2021/07/26 08:09:37;;;;;;;13.43;6.45;;;22.80;99.90;;;;;;5113623;28;20475;-75
2021/07/26 08:12:03;;;;;;;10.25;6.40;;;22.90;99.90;;;;;;5113828;28;20024;-76
2021/07/26 08:14:29;;;;;;;13.10;5.88;;;22.90;99.90;;;;;;5113935;28;20035;-75
2021/07/26 08:17:03;;;;;;;10.63;6.47;;;22.90;99.90;;;;;;5114069;28;20375;-75
2021/07/26 08:19:29;;;;;;;12.20;5.50;;;22.90;99.90;;;;;;5113980;28;20028;-76
2021/07/26 08:21:54;;;;;;;9.40;5.68;;;23.00;99.90;;;;;;5113587;28;20540;-75
2021/07/26 08:24:20;;;;;;;8.32;5.93;;;23.00;99.90;;;;;;5113381;28;20061;-76
2021/07/26 08:26:46;;;;;;;10.93;5.57;;;23.00;99.90;;;;;;5113620;28;20039;-75
2021/07/26 08:29:12;;;;;;;8.95;5.57;;;23.00;99.90;;;;;;5113484;28;20035;-75
2021/07/26 08:31:37;;;;;;;9.73;6.32;;;23.00;99.90;;;;;;5113432;28;20020;-75
2021/07/26 08:34:03;;;;;;;9.43;5.18;;;23.10;99.90;;;;;;5113119;28;20403;-75
2021/07/26 08:36:29;;;;;;;10.63;5.30;;;23.10;99.90;;;;;;5113459;28;20096;-75
2021/07/26 08:38:54;;;;;;;13.98;5.43;;;23.10;99.90;;;;;;5113403;28;20023;-75
2021/07/26 08:41:20;;;;;;;9.82;5.20;;;23.10;99.90;;;;;;5113050;28;20023;-75
2021/07/26 08:43:47;;;;;;;9.48;5.13;;;23.10;99.90;;;;;;5113083;28;20116;-75
2021/07/26 08:46:17;;;;;;;9.75;5.13;;;23.10;99.90;;;;;;5113005;28;20460;-75
2021/07/26 08:48:45;;;;;;;7.95;5.05;;;23.10;99.90;;;;;;5113183;28;20031;-75
2021/07/26 08:51:14;;;;;;;6.20;4.50;;;23.20;99.90;;;;;;5112960;28;20496;-75
2021/07/26 08:53:40;;;;;;;7.40;4.70;;;23.20;99.90;;;;;;5112988;28;20024;-75
2021/07/26 08:56:06;;;;;;;6.45;4.57;;;23.10;99.90;;;;;;5112902;28;20105;-75
2021/07/26 08:58:32;;;;;;;8.60;4.72;;;23.10;99.90;;;;;;5112809;28;20028;-75
2021/07/26 09:00:58;;;;;;;6.55;4.20;;;23.10;99.90;;;;;;5112650;28;20039;-75
2021/07/26 09:03:24;;;;;;;8.80;5.15;;;23.10;99.90;;;;;;5112358;28;20016;-76
2021/07/26 09:05:50;;;;;;;6.75;4.40;;;23.20;99.90;;;;;;5112761;28;20399;-75
2021/07/26 09:08:16;;;;;;;8.10;4.68;;;23.10;99.90;;;;;;5112544;28;20026;-76
2021/07/26 09:10:45;;;;;;;7.00;4.90;;;23.10;99.90;;;;;;5112576;28;20034;-75
2021/07/26 09:13:12;;;;;;;6.43;4.45;;;23.10;99.90;;;;;;5112369;28;20027;-75
2021/07/26 09:15:41;;;;;;;7.20;4.75;;;23.10;99.90;;;;;;5112677;28;20061;-75
2021/07/26 09:18:09;;;;;;;9.23;5.07;;;23.10;99.90;;;;;;5112431;28;20027;-75
2021/07/26 09:20:39;;;;;;;6.55;4.82;;;23.10;99.90;;;;;;5112173;28;20436;-76
2021/07/26 09:23:14;;;;;;;5.32;3.75;;;23.10;99.90;;;;;;5112529;28;20030;-75
2021/07/26 09:25:42;;;;;;;5.28;4.03;;;23.10;99.90;;;;;;5112303;28;20111;-75
2021/07/26 09:28:09;;;;;;;7.13;4.45;;;23.10;99.90;;;;;;5112067;28;20556;-75
2021/07/26 09:30:49;;;;;;;6.30;3.83;;;23.20;99.90;;;;;;5111776;28;20487;-75
2021/07/26 09:33:18;;;;;;;8.05;4.15;;;23.10;99.90;;;;;;5111956;28;20588;-75
2021/07/26 09:35:45;;;;;;;5.95;4.20;;;23.10;99.90;;;;;;5112286;28;20027;-76
2021/07/26 09:38:11;;;;;;;10.32;5.00;;;23.10;99.90;;;;;;5112063;28;20491;-75
2021/07/26 09:40:37;;;;;;;7.35;4.88;;;23.10;99.90;;;;;;5111891;28;20073;-75
2021/07/26 09:43:16;;;;;;;5.55;3.90;;;23.10;99.90;;;;;;5112410;28;20023;-76
2021/07/26 09:45:42;;;;;;;4.85;3.75;;;23.10;99.90;;;;;;5112163;28;20024;-75
2021/07/26 09:48:09;;;;;;;5.13;4.03;;;23.10;99.90;;;;;;5112015;28;20024;-75
2021/07/26 09:50:40;;;;;;;5.53;3.47;;;23.10;99.90;;;;;;5111616;28;20024;-76
2021/07/26 09:53:06;;;;;;;6.43;4.10;;;23.10;99.90;;;;;;5111402;28;20028;-74
2021/07/26 09:55:33;;;;;;;6.40;3.42;;;23.10;99.90;;;;;;5093530;28;20043;-76
2021/07/26 09:58:03;;;;;;;6.93;3.45;;;23.10;99.90;;;;;;5112219;28;20012;-75
2021/07/26 10:00:29;;;;;;;5.25;4.07;;;23.10;99.90;;;;;;5111612;28;20028;-76
2021/07/26 10:02:56;;;;;;;7.50;4.22;;;23.10;99.90;;;;;;5111619;28;20020;-75
2021/07/26 10:05:26;;;;;;;4.85;3.40;;;23.10;99.90;;;;;;5110721;28;20080;-75
2021/07/26 10:07:52;;;;;;;5.82;3.63;;;23.10;99.90;;;;;;5111341;28;20030;-75
2021/07/26 10:10:19;;;;;;;4.95;4.05;;;23.10;99.90;;;;;;5093238;28;20051;-75
2021/07/26 10:12:45;;;;;;;8.85;3.65;;;23.10;99.90;;;;;;5111058;28;20020;-75
2021/07/26 10:15:12;;;;;;;6.65;3.75;;;23.10;99.90;;;;;;5111306;28;20050;-75
2021/07/26 10:17:41;;;;;;;8.02;3.88;;;23.10;99.90;;;;;;5111413;28;20020;-75
2021/07/26 10:20:09;;;;;;;5.43;3.72;;;23.20;99.90;;;;;;5111605;28;20483;-75
2021/07/26 10:22:35;;;;;;;8.90;3.83;;;23.10;99.90;;;;;;5111424;28;20379;-74
2021/07/26 10:25:09;;;;;;;8.07;4.00;;;23.20;99.90;;;;;;5111875;28;20016;-73
2021/07/26 10:27:37;;;;;;;11.15;4.80;;;23.20;99.90;;;;;;5111490;28;20539;-75
2021/07/26 10:30:04;;;;;;;11.13;4.60;;;23.10;99.90;;;;;;5111491;28;20063;-74
2021/07/26 10:32:33;;;;;;;10.48;4.70;;;23.00;99.90;;;;;;5110995;28;20058;-76
2021/07/26 10:35:17;;;;;;;7.47;4.05;;;22.90;99.90;;;;;;5111326;28;20036;-74
2021/07/26 10:37:49;;;;;;;7.88;3.20;;;22.90;99.90;;;;;;5092564;28;20028;-74
2021/07/26 10:40:23;;;;;;;5.80;3.50;;;22.80;99.90;;;;;;5110954;28;20016;-74
2021/07/26 10:42:52;;;;;;;5.93;3.10;;;22.80;99.90;;;;;;5111161;28;20020;-74
2021/07/26 10:45:35;;;;;;;8.32;3.08;;;22.80;99.90;;;;;;5111013;28;20039;-74
2021/07/26 10:48:20;;;;;;;4.53;3.00;;;22.70;99.90;;;;;;5111458;28;20084;-74
2021/07/26 10:50:46;;;;;;;5.55;3.10;;;22.70;99.90;;;;;;5110900;28;20114;-74
2021/07/26 10:53:32;;;;;;;8.52;3.30;;;22.80;99.90;;;;;;5111022;28;20023;-73
2021/07/26 10:56:08;;;;;;;7.75;2.90;;;22.80;99.90;;;;;;5111214;28;20032;-75
2021/07/26 10:58:43;;;;;;;7.82;3.38;;;22.80;99.90;;;;;;5111305;28;20031;-74
2021/07/26 11:01:20;;;;;;;10.27;3.30;;;22.80;99.90;;;;;;5111041;28;20027;-75
2021/07/26 11:03:56;;;;;;;5.22;2.85;;;22.80;99.90;;;;;;5110588;28;20092;-74
2021/07/26 11:06:37;;;;;;;6.10;3.25;;;22.80;99.90;;;;;;5110693;28;20391;-75
2021/07/26 11:09:32;;;;;;;6.50;3.30;;;22.80;99.90;;;;;;5111357;28;20028;-75
2021/07/26 11:11:59;;;;;;;8.65;3.20;;;22.80;99.90;;;;;;5101667;28;20043;-75
2021/07/26 11:14:25;;;;;;;5.85;3.10;;;22.80;99.90;;;;;;5110047;28;20039;-75
2021/07/26 11:19:46;;;;;;;13.32;3.17;;;22.80;99.90;;;;;;5108918;28;20077;-75
2021/07/26 11:22:15;;;;;;;7.95;3.17;;;22.80;99.90;;;;;;5110755;28;20383;-75
2021/07/26 11:24:48;;;;;;;6.15;3.22;;;22.80;99.90;;;;;;5113014;28;20035;-74
2021/07/26 11:27:24;;;;;;;8.35;2.47;;;22.90;99.90;;;;;;5114026;28;20011;-75
2021/07/26 11:29:49;;;;;;;;;;;22.80;99.90;;;;;;5115074;28;20576;-75
2021/07/26 11:32:19;;;;;;;;;;;22.90;99.90;;;;;;5114304;28;19998;-74
2021/07/26 11:34:45;;;;;;;5.15;2.10;;;22.90;99.90;;;;;;5114069;28;19915;-74
2021/07/26 11:37:15;;;;;;;6.78;2.05;;;22.90;99.90;;;;;;5114586;28;20174;-75
2021/07/26 11:39:49;;;;;;;8.32;2.38;;;22.90;99.90;;;;;;5113444;28;20027;-75
2021/07/26 11:42:17;;;;;;;5.95;2.03;;;22.90;99.90;;;;;;5095354;28;20028;-75
2021/07/26 11:44:47;;;;;;;6.85;2.35;;;22.90;99.90;;;;;;5114318;28;20019;-75
2021/07/26 11:47:16;;;;;;;3.35;2.00;;;22.90;99.90;;;;;;5114054;28;20065;-74
2021/07/26 11:49:49;;;;;;;5.88;2.55;;;23.00;99.90;;;;;;5094078;28;20031;-75
2021/07/26 11:52:16;;;;;;;7.43;3.45;;;23.00;99.90;;;;;;5096701;28;20050;-75
2021/07/26 11:54:42;;;;;;;17.30;9.10;;;22.90;99.90;;;;;;5112819;28;20039;-75
2021/07/26 11:57:12;;;;;;;10.70;4.28;;;23.00;99.90;;;;;;5112494;28;20020;-75
2021/07/26 11:59:40;;;;;;;9.60;3.78;;;23.00;99.90;;;;;;5112631;28;20154;-75
2021/07/26 12:02:06;;;;;;;11.32;4.43;;;23.00;99.90;;;;;;5112700;28;20027;-74
2021/07/26 12:04:32;;;;;;;8.32;4.32;;;23.00;99.90;;;;;;5112507;28;20026;-75
2021/07/26 12:07:00;;;;;;;9.80;4.53;;;23.00;99.90;;;;;;5112315;28;20024;-74
2021/07/26 12:09:26;;;;;;;7.95;4.13;;;23.10;99.90;;;;;;5112674;28;20019;-74
2021/07/26 12:11:53;;;;;;;12.48;4.43;;;23.00;99.90;;;;;;5094712;28;20020;-74
2021/07/26 12:14:31;;;;;;;9.75;2.75;;;23.00;99.90;;;;;;5094162;28;20051;-75
2021/07/26 12:17:02;;;;;;;8.43;3.47;;;23.10;99.90;;;;;;5113795;28;20020;-75
2021/07/26 12:19:29;;;;;;;5.35;3.03;;;23.00;99.90;;;;;;5113586;28;20053;-75
2021/07/26 12:21:55;;;;;;;7.47;3.55;;;23.10;99.90;;;;;;5113654;28;20035;-75
2021/07/26 12:24:47;;;;;;;6.88;3.20;;;23.00;99.90;;;;;;5113444;28;20383;-75
2021/07/26 12:27:29;;;;;;;6.15;2.80;;;23.10;99.90;;;;;;5113534;28;20479;-75
2021/07/26 12:29:57;;;;;;;8.75;3.05;;;23.10;99.90;;;;;;5113272;28;20051;-75
2021/07/26 12:32:23;;;;;;;6.53;2.78;;;23.10;99.90;;;;;;5113231;28;20055;-75
2021/07/26 12:35:13;;;;;;;4.57;2.50;;;23.10;99.90;;;;;;5113194;28;20031;-75
2021/07/26 12:37:39;;;;;;;5.20;2.28;;;23.10;99.90;;;;;;5113295;28;20027;-74
2021/07/26 12:40:15;;;;;;;6.93;2.78;;;23.10;99.90;;;;;;5113570;28;20031;-75
2021/07/26 12:42:42;;;;;;;5.65;2.80;;;23.10;99.90;;;;;;5113211;28;20441;-76
2021/07/26 12:45:23;;;;;;;7.75;2.80;;;23.10;99.90;;;;;;5113272;28;20016;-75
2021/07/26 12:47:50;;;;;;;7.38;2.60;;;23.10;99.90;;;;;;5112839;28;20032;-76
2021/07/26 12:50:16;;;;;;;5.10;2.42;;;23.10;99.90;;;;;;5112713;28;20103;-76
2021/07/26 12:52:42;;;;;;;5.55;2.30;;;23.10;99.90;;;;;;5094621;28;20437;-76